createdAt,value
2022-10-18T00:00:02.982Z,14.83
2022-10-18T00:03:05.639Z,14.78
2022-10-18T00:06:10.108Z,14.72
2022-10-18T00:09:12.921Z,14.63
2022-10-18T00:12:16.889Z,14.54
2022-10-18T00:15:19.779Z,14.55
2022-10-18T00:18:23.077Z,14.59
2022-10-18T00:21:26.772Z,14.54
2022-10-18T00:24:29.471Z,14.51
2022-10-18T00:27:33.793Z,14.48
2022-10-18T00:30:36.455Z,14.47
2022-10-18T00:33:39.603Z,14.48
2022-10-18T00:36:43.069Z,14.46
2022-10-18T00:39:45.748Z,14.45
2022-10-18T00:42:49.766Z,14.51
2022-10-18T00:45:52.409Z,14.57
2022-10-18T00:48:57.234Z,14.71
2022-10-18T00:52:07.682Z,14.82
2022-10-18T00:55:11.191Z,14.86
2022-10-18T00:58:15.564Z,14.92
2022-10-18T01:01:18.825Z,14.98
2022-10-18T01:04:22.208Z,15.02
2022-10-18T01:07:35.192Z,15.03
2022-10-18T01:10:44.089Z,15.03
2022-10-18T01:14:02.330Z,15.08
2022-10-18T01:17:09.222Z,15.13
2022-10-18T01:20:32.267Z,15.19
2022-10-18T01:23:58.809Z,15.24
2022-10-18T01:27:36.160Z,15.32
2022-10-18T01:30:47.981Z,15.42
2022-10-18T01:33:53.548Z,15.52
2022-10-18T01:36:57.743Z,15.65
2022-10-18T01:40:00.876Z,15.68
2022-10-18T01:43:04.165Z,15.69
2022-10-18T01:46:09.473Z,15.67
2022-10-18T01:49:12.109Z,15.68
2022-10-18T01:52:15.590Z,15.68
2022-10-18T01:55:18.366Z,15.69
2022-10-18T01:58:26.635Z,15.71
2022-10-18T02:01:36.300Z,15.72
2022-10-18T02:04:45.530Z,15.71
2022-10-18T02:08:00.339Z,15.68
2022-10-18T02:11:17.642Z,15.68
2022-10-18T02:14:21.479Z,15.70
2022-10-18T02:17:27.175Z,15.73
2022-10-18T02:20:32.372Z,15.72
2022-10-18T02:23:35.330Z,15.74
2022-10-18T02:26:38.139Z,15.77
2022-10-18T02:29:42.337Z,15.82
2022-10-18T02:32:50.935Z,15.85
2022-10-18T02:35:59.870Z,15.84
2022-10-18T02:39:06.251Z,15.87
2022-10-18T02:42:11.690Z,15.89
2022-10-18T02:45:14.834Z,15.89
2022-10-18T02:48:19.034Z,15.93
2022-10-18T02:51:21.719Z,15.94
2022-10-18T02:54:24.820Z,15.92
2022-10-18T02:57:27.701Z,15.94
2022-10-18T03:00:30.382Z,15.95
2022-10-18T03:03:34.275Z,15.95
2022-10-18T03:06:36.941Z,15.92
2022-10-18T03:09:39.577Z,15.89
2022-10-18T03:12:42.247Z,15.84
2022-10-18T03:15:44.983Z,15.85
2022-10-18T03:18:49.017Z,15.87
2022-10-18T03:21:51.671Z,15.88
2022-10-18T03:24:54.544Z,15.84
2022-10-18T03:27:57.210Z,15.79
2022-10-18T03:31:02.073Z,15.77
2022-10-18T03:34:06.068Z,15.74
2022-10-18T03:37:08.738Z,15.77
2022-10-18T03:40:12.117Z,15.72
2022-10-18T03:43:14.848Z,15.64
2022-10-18T03:46:17.503Z,15.51
2022-10-18T03:49:21.555Z,15.39
2022-10-18T03:52:24.190Z,15.27
2022-10-18T03:55:26.825Z,15.19
2022-10-18T03:58:29.622Z,15.09
2022-10-18T04:01:32.548Z,15.02
2022-10-18T04:04:36.665Z,14.90
2022-10-18T04:07:39.505Z,14.81
2022-10-18T04:10:42.743Z,14.77
2022-10-18T04:13:45.296Z,14.69
2022-10-18T04:16:48.040Z,14.63
2022-10-18T04:19:52.023Z,14.59
2022-10-18T04:22:57.539Z,14.58
2022-10-18T04:26:00.190Z,14.62
2022-10-18T04:29:02.916Z,14.72
2022-10-18T04:32:05.930Z,14.83
2022-10-18T04:35:11.485Z,14.90
2022-10-18T04:38:14.884Z,14.88
2022-10-18T04:41:17.518Z,14.84
2022-10-18T04:44:20.251Z,14.82
2022-10-18T04:47:23.092Z,14.84
2022-10-18T04:50:27.083Z,14.98
2022-10-18T04:53:29.872Z,15.44
2022-10-18T04:56:32.708Z,16.02
2022-10-18T04:59:35.363Z,17.03
2022-10-18T05:02:38.159Z,17.59
2022-10-18T05:06:00.937Z,17.54
2022-10-18T05:09:05.106Z,17.09
2022-10-18T05:12:07.835Z,16.67
2022-10-18T05:15:11.511Z,16.50
2022-10-18T05:18:14.292Z,16.34
2022-10-18T05:21:18.494Z,16.21
2022-10-18T05:24:23.038Z,16.02
2022-10-18T05:27:29.274Z,15.94
2022-10-18T05:30:32.015Z,15.79
2022-10-18T05:33:35.098Z,15.65
2022-10-18T05:36:39.222Z,15.50
2022-10-18T05:39:41.856Z,15.41
2022-10-18T05:42:44.824Z,15.43
2022-10-18T05:45:50.751Z,15.39
2022-10-18T05:48:53.360Z,15.47
2022-10-18T05:51:57.455Z,15.63
2022-10-18T05:55:00.128Z,15.72
2022-10-18T05:58:02.831Z,15.63
2022-10-18T06:01:06.724Z,15.65
2022-10-18T06:04:10.186Z,15.59
2022-10-18T06:07:14.038Z,15.53
2022-10-18T06:10:16.762Z,15.55
2022-10-18T06:13:19.376Z,15.65
2022-10-18T06:16:24.815Z,15.67
2022-10-18T06:19:29.958Z,15.84
2022-10-18T06:22:33.985Z,16.41
2022-10-18T06:25:36.622Z,17.04
2022-10-18T06:28:39.608Z,17.66
2022-10-18T06:31:42.313Z,18.35
2022-10-18T06:34:44.939Z,18.93
2022-10-18T06:37:48.994Z,19.41
2022-10-18T06:40:51.690Z,19.66
2022-10-18T06:43:57.360Z,19.78
2022-10-18T06:47:00.052Z,19.95
2022-10-18T06:50:02.826Z,20.06
2022-10-18T06:53:08.704Z,20.08
2022-10-18T06:56:13.035Z,20.06
2022-10-18T06:59:16.002Z,20.16
2022-10-18T07:02:18.661Z,20.24
2022-10-18T07:05:21.452Z,20.27
2022-10-18T07:08:25.632Z,20.27
2022-10-18T07:11:28.301Z,20.35
2022-10-18T07:14:31.126Z,20.39
2022-10-18T07:17:34.069Z,20.49
2022-10-18T07:20:36.947Z,20.55
2022-10-18T07:23:42.764Z,20.50
2022-10-18T07:26:45.361Z,20.66
2022-10-18T07:29:48.719Z,20.67
2022-10-18T07:32:52.480Z,20.60
2022-10-18T07:35:55.049Z,20.89
2022-10-18T07:38:59.616Z,21.06
2022-10-18T07:42:02.254Z,21.07
2022-10-18T07:45:05.345Z,21.10
2022-10-18T07:48:08.056Z,21.30
2022-10-18T07:51:11.017Z,21.60
2022-10-18T07:54:14.967Z,21.62
2022-10-18T07:57:17.589Z,21.97
2022-10-18T08:00:20.512Z,22.22
2022-10-18T08:03:23.155Z,22.16
2022-10-18T08:06:25.899Z,22.31
2022-10-18T08:09:30.018Z,22.75
2022-10-18T08:12:32.700Z,22.84
2022-10-18T08:15:35.297Z,22.44
2022-10-18T08:18:39.043Z,22.08
2022-10-18T08:21:42.062Z,21.93
2022-10-18T08:24:46.192Z,21.68
2022-10-18T08:27:49.136Z,21.59
2022-10-18T08:30:51.791Z,21.78
2022-10-18T08:33:56.115Z,22.12
2022-10-18T08:36:58.840Z,22.03
2022-10-18T08:40:02.881Z,22.22
2022-10-18T08:43:08.477Z,22.31
2022-10-18T08:46:13.354Z,22.35
2022-10-18T08:49:24.181Z,22.30
2022-10-18T08:52:33.228Z,22.32
2022-10-18T08:55:40.145Z,22.27
2022-10-18T08:58:44.918Z,22.52
2022-10-18T09:01:58.258Z,22.63
2022-10-18T09:05:03.073Z,22.54
2022-10-18T09:08:35.014Z,22.24
2022-10-18T09:11:48.196Z,22.28
2022-10-18T09:15:16.408Z,22.16
2022-10-18T09:18:32.980Z,22.52
2022-10-18T09:21:43.260Z,22.60
2022-10-18T09:24:49.566Z,22.80
2022-10-18T09:27:56.210Z,23.39
2022-10-18T09:31:03.549Z,24.10
2022-10-18T09:34:10.435Z,24.67
2022-10-18T09:37:14.929Z,25.54
2022-10-18T09:40:20.799Z,25.33
2022-10-18T09:43:27.152Z,24.28
2022-10-18T09:46:33.682Z,22.99
2022-10-18T09:49:40.262Z,22.63
2022-10-18T09:52:47.216Z,23.17
2022-10-18T09:55:57.877Z,22.47
2022-10-18T09:59:02.030Z,22.45
2022-10-18T10:02:05.200Z,22.38
2022-10-18T10:08:18.126Z,23.25
2022-10-18T10:11:29.628Z,23.22
2022-10-18T10:14:44.186Z,22.97
2022-10-18T10:17:55.126Z,22.79
2022-10-18T10:21:00.205Z,22.40
2022-10-18T10:24:04.512Z,22.17
2022-10-18T10:27:08.545Z,22.24
2022-10-18T10:30:25.930Z,22.39
2022-10-18T10:33:34.686Z,22.13
2022-10-18T10:36:47.672Z,22.34
2022-10-18T10:40:17.786Z,22.53
2022-10-18T10:43:36.927Z,22.60
2022-10-18T10:46:41.564Z,23.05
2022-10-18T10:49:47.280Z,23.24
2022-10-18T10:52:50.035Z,23.65
2022-10-18T10:55:54.845Z,23.88
2022-10-18T10:59:03.049Z,24.12
2022-10-18T11:02:23.819Z,24.10
2022-10-18T11:05:29.295Z,24.29
2022-10-18T11:08:36.562Z,24.15
2022-10-18T11:11:42.513Z,24.24
2022-10-18T11:14:48.286Z,24.31
2022-10-18T11:18:03.999Z,24.11
2022-10-18T11:21:10.880Z,24.01
2022-10-18T11:24:16.718Z,24.04
2022-10-18T11:27:24.749Z,24.45
2022-10-18T11:30:38.113Z,24.88
2022-10-18T11:34:09.932Z,25.34
2022-10-18T11:37:30.343Z,26.03
2022-10-18T11:40:48.345Z,26.24
2022-10-18T11:44:03.055Z,26.64
2022-10-18T11:47:13.185Z,26.86
2022-10-18T11:50:26.224Z,27.25
2022-10-18T11:53:30.020Z,27.42
2022-10-18T11:56:37.943Z,26.61
2022-10-18T11:59:46.907Z,27.00
2022-10-18T12:02:58.555Z,27.09
2022-10-18T12:06:06.465Z,27.31
2022-10-18T12:09:17.483Z,27.40
2022-10-18T12:12:24.184Z,26.97
2022-10-18T12:15:28.535Z,26.74
2022-10-18T12:18:31.633Z,27.55
2022-10-18T12:21:35.690Z,28.44
2022-10-18T12:24:38.727Z,28.84
2022-10-18T12:27:45.308Z,26.72
2022-10-18T12:30:52.667Z,25.46
2022-10-18T12:33:59.082Z,25.09
2022-10-18T12:37:27.737Z,24.65
2022-10-18T12:40:35.606Z,24.90
2022-10-18T12:43:38.243Z,26.89
2022-10-18T12:46:45.099Z,30.23
2022-10-18T12:49:57.155Z,28.91
2022-10-18T12:53:06.576Z,27.62
2022-10-18T12:56:37.573Z,31.65
2022-10-18T12:59:43.001Z,29.68
2022-10-18T13:02:45.745Z,28.37
2022-10-18T13:05:56.701Z,26.38
2022-10-18T13:09:20.752Z,27.12
2022-10-18T13:12:48.273Z,32.31
2022-10-18T13:15:55.048Z,36.71
2022-10-18T13:19:00.483Z,35.87
2022-10-18T13:22:18.945Z,37.51
2022-10-18T13:25:27.366Z,35.29
2022-10-18T13:28:35.650Z,36.28
2022-10-18T13:31:42.886Z,32.68
2022-10-18T13:34:45.632Z,27.92
2022-10-18T13:37:58.997Z,28.45
2022-10-18T13:41:03.942Z,32.09
2022-10-18T13:44:25.750Z,36.55
2022-10-18T13:47:35.752Z,40.53
2022-10-18T13:50:39.289Z,39.50
2022-10-18T13:53:48.205Z,35.33
2022-10-18T13:57:03.177Z,36.83
2022-10-18T14:00:23.032Z,30.90
2022-10-18T14:03:57.685Z,30.53
2022-10-18T14:07:03.402Z,35.79
2022-10-18T14:10:11.350Z,41.24
2022-10-18T14:13:20.834Z,41.46
2022-10-18T14:16:35.970Z,36.66
2022-10-18T14:19:42.027Z,29.58
2022-10-18T14:22:47.593Z,26.50
2022-10-18T14:25:50.507Z,25.24
2022-10-18T14:29:05.055Z,24.79
2022-10-18T14:32:10.625Z,23.40
2022-10-18T14:35:37.117Z,23.06
2022-10-18T14:38:46.767Z,23.00
2022-10-18T14:41:51.565Z,22.91
2022-10-18T14:44:56.658Z,23.12
2022-10-18T14:48:15.268Z,22.62
2022-10-18T14:51:18.079Z,22.94
2022-10-18T14:54:27.637Z,23.44
2022-10-18T14:57:37.152Z,28.32
2022-10-18T15:00:43.887Z,28.42
2022-10-18T15:03:49.489Z,29.57
2022-10-18T15:06:52.193Z,28.22
2022-10-18T15:09:54.959Z,26.94
2022-10-18T15:13:16.099Z,25.88
2022-10-18T15:16:21.943Z,24.12
2022-10-18T15:19:29.997Z,23.31
2022-10-18T15:22:33.735Z,23.48
2022-10-18T15:25:36.490Z,23.02
2022-10-18T15:28:49.524Z,22.87
2022-10-18T15:31:53.793Z,22.46
2022-10-18T15:34:57.190Z,22.04
2022-10-18T15:38:02.508Z,21.80
2022-10-18T15:41:39.510Z,21.57
2022-10-18T15:44:49.308Z,21.71
2022-10-18T15:48:05.125Z,21.88
2022-10-18T15:51:09.005Z,22.04
2022-10-18T15:54:18.356Z,21.76
2022-10-18T15:57:21.129Z,21.92
2022-10-18T16:00:23.718Z,21.94
2022-10-18T16:03:28.423Z,21.82
2022-10-18T16:06:32.375Z,21.63
2022-10-18T16:09:35.264Z,21.51
2022-10-18T16:12:38.178Z,21.45
2022-10-18T16:15:41.148Z,21.41
2022-10-18T16:18:45.329Z,21.34
2022-10-18T16:21:48.040Z,21.24
2022-10-18T16:24:52.566Z,21.19
2022-10-18T16:27:55.223Z,21.11
2022-10-18T16:30:59.824Z,20.95
2022-10-18T16:34:04.164Z,20.88
2022-10-18T16:37:06.967Z,20.85
2022-10-18T16:40:22.906Z,20.79
2022-10-18T16:43:25.946Z,20.81
2022-10-18T16:46:30.111Z,20.78
2022-10-18T16:49:34.249Z,20.75
2022-10-18T16:52:37.363Z,20.73
2022-10-18T16:55:41.485Z,20.66
2022-10-18T16:58:44.627Z,20.59
2022-10-18T17:01:47.566Z,20.50
2022-10-18T17:04:51.663Z,20.59
2022-10-18T17:07:54.401Z,20.56
2022-10-18T17:10:58.562Z,20.56
2022-10-18T17:14:01.246Z,20.46
2022-10-18T17:17:03.952Z,20.48
2022-10-18T17:20:09.642Z,20.46
2022-10-18T17:23:12.569Z,20.39
2022-10-18T17:26:28.359Z,20.36
2022-10-18T17:29:32.162Z,20.24
2022-10-18T17:32:34.850Z,20.12
2022-10-18T17:35:39.646Z,19.99
2022-10-18T17:38:42.495Z,19.85
2022-10-18T17:41:45.318Z,19.72
2022-10-18T17:44:48.248Z,19.54
2022-10-18T17:47:51.273Z,19.41
2022-10-18T17:50:55.516Z,19.32
2022-10-18T17:53:58.191Z,19.40
2022-10-18T17:57:00.958Z,19.45
2022-10-18T18:00:05.926Z,19.46
2022-10-18T18:03:08.739Z,19.44
2022-10-18T18:06:17.965Z,19.31
2022-10-18T18:09:21.200Z,19.19
2022-10-18T18:12:24.180Z,18.96
2022-10-18T18:15:27.075Z,18.86
2022-10-18T18:18:29.922Z,18.63
2022-10-18T18:21:34.438Z,18.57
2022-10-18T18:24:37.420Z,18.35
2022-10-18T18:27:40.232Z,18.21
2022-10-18T18:30:43.130Z,18.21
2022-10-18T18:33:46.321Z,18.10
2022-10-18T18:36:51.934Z,18.10
2022-10-18T18:39:54.587Z,18.12
2022-10-18T18:43:12.083Z,18.05
2022-10-18T18:46:21.775Z,17.91
2022-10-18T18:49:24.589Z,17.77
2022-10-18T18:52:28.807Z,17.65
2022-10-18T18:55:33.823Z,17.62
2022-10-18T18:58:38.133Z,17.59
2022-10-18T19:01:41.420Z,17.51
2022-10-18T19:04:44.372Z,17.32
2022-10-18T19:07:48.569Z,17.26
2022-10-18T19:10:51.352Z,17.12
2022-10-18T19:13:54.363Z,17.06
2022-10-18T19:16:59.000Z,17.06
2022-10-18T19:20:02.408Z,17.01
2022-10-18T19:23:06.467Z,16.89
2022-10-18T19:26:12.836Z,16.83
2022-10-18T19:29:16.953Z,16.85
2022-10-18T19:32:19.847Z,16.77
2022-10-18T19:35:22.950Z,16.67
2022-10-18T19:38:27.149Z,16.67
2022-10-18T19:41:30.096Z,16.63
2022-10-18T19:44:33.975Z,16.57
2022-10-18T19:47:38.551Z,16.53
2022-10-18T19:50:41.341Z,16.42
2022-10-18T19:53:45.573Z,16.36
2022-10-18T19:56:48.545Z,16.35
2022-10-18T19:59:51.237Z,16.33
2022-10-18T20:02:53.988Z,16.27
2022-10-18T20:05:57.830Z,16.20
2022-10-18T20:09:01.991Z,16.18
2022-10-18T20:12:05.183Z,16.27
2022-10-18T20:15:09.406Z,16.28
2022-10-18T20:18:12.187Z,16.26
2022-10-18T20:21:18.028Z,16.26
2022-10-18T20:24:22.163Z,16.25
2022-10-18T20:27:27.408Z,16.18
2022-10-18T20:30:30.410Z,16.13
2022-10-18T20:33:34.004Z,16.08
2022-10-18T20:36:37.150Z,16.09
2022-10-18T20:39:41.835Z,16.06
2022-10-18T20:42:44.549Z,16.01
2022-10-18T20:45:47.300Z,15.97
2022-10-18T20:48:50.653Z,15.93
2022-10-18T20:51:53.326Z,15.91
2022-10-18T20:54:57.512Z,15.83
2022-10-18T20:58:00.224Z,15.66
2022-10-18T21:01:07.862Z,15.67
2022-10-18T21:04:11.497Z,15.72
2022-10-18T21:07:14.277Z,15.74
2022-10-18T21:10:18.525Z,15.70
2022-10-18T21:13:21.379Z,15.57
2022-10-18T21:16:24.296Z,15.43
2022-10-18T21:19:28.174Z,15.36
2022-10-18T21:22:31.290Z,15.31
2022-10-18T21:25:35.727Z,15.25
2022-10-18T21:28:38.606Z,15.27
2022-10-18T21:31:43.338Z,15.25
2022-10-18T21:34:46.059Z,15.20
2022-10-18T21:37:48.783Z,15.15
2022-10-18T21:40:52.814Z,15.09
2022-10-18T21:43:56.638Z,15.06
2022-10-18T21:46:59.251Z,15.09
2022-10-18T21:50:01.965Z,15.04
2022-10-18T21:53:04.586Z,15.04
2022-10-18T21:56:10.696Z,15.18
2022-10-18T21:59:13.895Z,15.06
2022-10-18T22:02:16.619Z,14.98
2022-10-18T22:05:19.818Z,14.98
2022-10-18T22:08:22.958Z,14.97
2022-10-18T22:11:29.125Z,14.99
2022-10-18T22:14:31.775Z,14.90
2022-10-18T22:17:34.676Z,14.92
2022-10-18T22:20:37.644Z,14.89
2022-10-18T22:23:42.335Z,14.90
2022-10-18T22:26:47.112Z,14.93
2022-10-18T22:29:49.765Z,14.87
2022-10-18T22:32:52.486Z,14.80
2022-10-18T22:35:55.147Z,14.77
2022-10-18T22:38:57.863Z,14.80
2022-10-18T22:42:01.920Z,14.79
2022-10-18T22:45:05.103Z,14.79
2022-10-18T22:48:07.864Z,14.80
2022-10-18T22:51:11.129Z,14.93
2022-10-18T22:54:13.836Z,15.17
2022-10-18T22:57:17.809Z,15.32
2022-10-18T23:00:20.437Z,15.42
2022-10-18T23:03:23.196Z,15.45
2022-10-18T23:06:27.250Z,15.43
2022-10-18T23:09:29.913Z,15.36
2022-10-18T23:12:34.426Z,15.29
2022-10-18T23:15:39.037Z,15.33
2022-10-18T23:18:41.724Z,15.32
2022-10-18T23:21:44.365Z,15.24
2022-10-18T23:24:47.081Z,15.04
2022-10-18T23:27:51.145Z,14.86
2022-10-18T23:30:53.842Z,14.73
2022-10-18T23:33:58.321Z,14.72
2022-10-18T23:37:00.939Z,14.68
2022-10-18T23:40:03.592Z,14.68
2022-10-18T23:43:07.565Z,14.68
2022-10-18T23:46:10.270Z,14.68
2022-10-18T23:49:13.048Z,14.63
2022-10-18T23:52:15.752Z,14.60
2022-10-18T23:55:18.417Z,14.58
2022-10-18T23:58:22.601Z,14.53
